Time;durP1;ratioP1;P1;durP2;ratioP2;P2;SDS_P1;SDS_P2;PMS_P1;PMS_P2;Temp;Humidity;BMP_temperature;BMP_pressure;BME280_temperature;BME280_humidity;BME280_pressure;Samples;Min_cycle;Max_cycle;Signal;HPM_P1;HPM_P2
2022/12/27 00:01:41;;;;;;;12.30;3.28;;;;;;;2.42;100.00;101980.97;5061940;28;20020;-71
2022/12/27 00:04:07;;;;;;;12.02;2.83;;;;;;;2.39;100.00;101979.34;5054439;28;20033;-71
2022/12/27 00:06:32;;;;;;;14.25;3.15;;;;;;;2.41;100.00;101969.03;5057806;28;20048;-71
2022/12/27 00:08:58;;;;;;;11.82;4.18;;;;;;;2.36;100.00;101978.69;5057453;28;20113;-71
2022/12/27 00:11:26;;;;;;;16.42;2.67;;;;;;;2.38;100.00;101982.00;5059246;28;20267;-70
2022/12/27 00:13:51;;;;;;;7.55;2.58;;;;;;;2.34;100.00;101973.66;5052587;28;20132;-71
2022/12/27 00:16:19;;;;;;;8.75;2.65;;;;;;;2.38;100.00;101977.72;5044932;28;20100;-71
2022/12/27 00:18:46;;;;;;;9.95;2.90;;;;;;;2.51;100.00;101985.63;5054336;28;20028;-71
2022/12/27 00:21:12;;;;;;;8.55;3.00;;;;;;;2.39;100.00;101983.66;5063471;28;20486;-71
2022/12/27 00:23:41;;;;;;;13.68;3.05;;;;;;;2.37;100.00;101981.16;5058731;28;20032;-71
2022/12/27 00:26:11;;;;;;;13.23;3.22;;;;;;;2.32;100.00;101981.41;5062952;28;20228;-71
2022/12/27 00:28:36;;;;;;;12.50;3.03;;;;;;;2.35;100.00;101982.97;5058326;28;20025;-71
2022/12/27 00:31:02;;;;;;;13.25;3.47;;;;;;;2.33;100.00;101977.91;5057777;28;20031;-71
2022/12/27 00:33:30;;;;;;;13.68;2.85;;;;;;;2.37;100.00;101981.16;5058385;28;20029;-70
2022/12/27 00:35:58;;;;;;;15.30;3.33;;;;;;;2.44;100.00;101982.53;5060529;28;20044;-71
2022/12/27 00:38:24;;;;;;;9.45;2.53;;;;;;;2.44;100.00;101985.09;5074912;28;20434;-70
2022/12/27 00:40:49;;;;;;;12.65;2.70;;;;;;;2.39;100.00;101989.59;5058109;28;20033;-71
2022/12/27 00:43:15;;;;;;;13.27;2.38;;;;;;;2.31;100.00;101989.97;5062409;28;20040;-70
2022/12/27 00:45:42;;;;;;;13.30;2.88;;;;;;;2.42;100.00;101986.09;5056045;28;20043;-71
2022/12/27 00:48:08;;;;;;;16.35;2.55;;;;;;;2.36;100.00;101994.06;5055656;28;20039;-70
2022/12/27 00:50:33;;;;;;;13.73;3.28;;;;;;;2.36;100.00;102000.00;5048121;28;20048;-73
2022/12/27 00:52:59;;;;;;;7.10;2.55;;;;;;;2.40;100.00;101996.38;5064269;28;20024;-71
2022/12/27 00:55:24;;;;;;;10.77;2.88;;;;;;;2.47;100.00;101987.50;5061378;28;20070;-70
2022/12/27 00:57:50;;;;;;;8.07;2.85;;;;;;;2.45;100.00;101997.00;5060639;28;20505;-70
2022/12/27 01:00:16;;;;;;;9.18;2.40;;;;;;;2.46;100.00;101998.66;5055791;28;20311;-71
2022/12/27 01:02:41;;;;;;;6.93;2.50;;;;;;;2.34;100.00;102002.63;5060517;28;20108;-71
2022/12/27 01:05:07;;;;;;;11.38;2.45;;;;;;;2.30;100.00;102008.81;5044669;28;20094;-71
2022/12/27 01:07:33;;;;;;;13.63;3.15;;;;;;;2.38;100.00;102005.06;5059264;28;20040;-71
2022/12/27 01:09:58;;;;;;;8.75;2.65;;;;;;;2.44;100.00;102009.88;5056126;28;20045;-71
2022/12/27 01:12:24;;;;;;;10.23;2.38;;;;;;;2.41;100.00;102010.88;5058895;28;20036;-70
2022/12/27 01:14:49;;;;;;;16.58;3.17;;;;;;;2.44;100.00;102009.88;5058729;28;20041;-71
2022/12/27 01:17:15;;;;;;;11.88;2.40;;;;;;;2.41;100.00;102010.88;5059221;28;20449;-70
2022/12/27 01:19:40;;;;;;;13.15;2.92;;;;;;;2.43;100.00;102013.31;5058378;28;20098;-71
2022/12/27 01:22:06;;;;;;;12.88;3.20;;;;;;;2.48;100.00;102012.19;5053513;28;20401;-71
2022/12/27 01:24:32;;;;;;;12.38;2.42;;;;;;;2.56;100.00;102016.13;5057432;28;20082;-70
2022/12/27 01:26:58;;;;;;;11.98;2.28;;;;;;;2.53;100.00;102017.94;5057936;28;20040;-70
2022/12/27 01:29:24;;;;;;;19.00;2.20;;;;;;;2.50;100.00;102010.41;5033675;28;20110;-71
2022/12/27 01:31:50;;;;;;;13.05;3.10;;;;;;;2.43;100.00;102018.44;5064730;28;20029;-71
2022/12/27 01:34:16;;;;;;;7.38;2.83;;;;;;;2.55;100.00;102023.00;5053967;28;20137;-71
2022/12/27 01:36:42;;;;;;;9.88;2.30;;;;;;;2.58;100.00;102027.13;5060614;28;20170;-70
2022/12/27 01:39:11;;;;;;;17.90;2.80;;;;;;;2.50;100.00;102032.63;5060794;28;20045;-70
2022/12/27 01:44:54;;;;;;;9.93;2.70;;;;;;;2.53;100.00;102032.47;5061905;28;20047;-71
2022/12/27 01:47:43;;;;;;;13.98;2.53;;;;;;;2.63;100.00;102037.97;5042383;28;20047;-70
2022/12/27 01:50:25;;;;;;;15.93;2.85;;;;;;;2.59;100.00;102042.44;5064569;28;20442;-71
2022/12/27 01:53:08;;;;;;;11.20;2.90;;;;;;;2.47;100.00;102043.84;5066493;28;20028;-71
2022/12/27 01:55:59;;;;;;;9.80;2.50;;;;;;;2.50;100.00;102046.25;5062608;28;20057;-71
2022/12/27 01:59:01;;;;;;;5.25;2.13;;;;;;;2.54;100.00;102044.38;5047077;28;20025;-71
2022/12/27 02:01:34;;;;;;;8.10;2.38;;;;;;;2.47;100.00;102048.16;5061379;28;20048;-70
2022/12/27 02:04:07;;;;;;;8.55;2.08;;;;;;;2.50;100.00;102053.09;5061720;28;20181;-71
2022/12/27 02:06:35;;;;;;;6.78;3.50;;;;;;;2.38;100.00;102051.97;5062520;28;20028;-71
2022/12/27 02:09:19;;;;;;;8.18;2.10;;;;;;;2.48;100.00;102049.78;5058913;28;20089;-71
2022/12/27 02:11:49;;;;;;;16.90;2.50;;;;;;;2.50;100.00;102066.72;5062050;28;20024;-71
2022/12/27 02:14:40;;;;;;;14.65;2.28;;;;;;;2.49;100.00;102065.09;5043128;28;20437;-71
2022/12/27 02:17:13;;;;;;;14.70;2.55;;;;;;;2.58;100.00;102068.94;5063927;28;20035;-71
2022/12/27 02:19:39;;;;;;;7.60;2.05;;;;;;;2.50;100.00;102074.41;5064684;28;20434;-71
2022/12/27 02:22:26;;;;;;;11.85;3.53;;;;;;;2.59;100.00;102067.22;5061534;28;20111;-70
2022/12/27 02:25:34;;;;;;;16.58;3.05;;;;;;;2.51;100.00;102070.97;5055019;28;20406;-71
2022/12/27 02:28:28;;;;;;;17.30;3.47;;;;;;;2.46;100.00;102078.03;5059373;28;20093;-70
2022/12/27 02:30:59;;;;;;;9.45;2.10;;;;;;;2.47;100.00;102082.25;5074149;22;20045;-71
2022/12/27 02:33:31;;;;;;;7.25;2.22;;;;;;;2.45;100.00;102081.50;5038308;28;20029;-71
2022/12/27 02:36:02;;;;;;;11.68;1.90;;;;;;;2.52;100.00;102072.63;5035887;28;20068;-71
2022/12/27 02:38:32;;;;;;;10.75;2.40;;;;;;;2.40;100.00;102083.44;5017694;28;20638;-72
2022/12/27 02:57:07;;;;;;;15.90;3.50;;;;;;;2.52;100.00;102087.16;5037896;28;20041;-71
2022/12/27 02:58:39;;;;;;;12.73;2.85;;;;;;;2.55;100.00;102096.44;5037028;28;20647;-71
2022/12/27 03:04:39;;;;;;;11.07;2.13;;;;;;;2.54;100.00;102087.91;5053300;28;20893;-71
2022/12/27 03:07:07;;;;;;;;;;;;;;;2.58;100.00;102078.34;5061594;28;20103;-72
2022/12/27 03:15:56;;;;;;;8.43;2.42;;;;;;;2.56;100.00;102087.84;5039115;28;20407;-72
2022/12/27 03:18:29;;;;;;;;;;;;;;;2.59;100.00;102085.13;5057049;28;20035;-71
2022/12/27 03:26:32;;;;;;;9.13;2.70;;;;;;;2.42;100.00;102084.19;5056439;28;20087;-70
2022/12/27 03:34:39;;;;;;;23.58;3.58;;;;;;;2.52;100.00;102089.72;5038214;28;20045;-71
2022/12/27 03:40:33;;;;;;;8.10;2.05;;;;;;;2.61;100.00;102099.53;5038756;28;20048;-70
2022/12/27 03:43:11;;;;;;;9.15;2.13;;;;;;;2.61;100.00;102099.53;5037994;28;20519;-71
2022/12/27 03:48:55;;;;;;;13.63;2.63;;;;;;;2.61;100.00;102101.25;5054936;28;20123;-70
2022/12/27 03:51:23;;;;;;;12.50;2.95;;;;;;;2.70;100.00;102106.78;5019908;28;20036;-70
2022/12/27 03:53:56;;;;;;;12.02;2.63;;;;;;;2.59;100.00;102091.09;5036101;28;20027;-71
2022/12/27 03:56:22;;;;;;;9.05;1.92;;;;;;;2.79;100.00;102095.28;5055317;28;20029;-70
2022/12/27 03:58:48;;;;;;;9.48;2.08;;;;;;;2.58;100.00;102097.13;5033387;28;20557;-70
2022/12/27 04:01:13;;;;;;;10.98;2.25;;;;;;;2.65;100.00;102103.59;5054575;28;20025;-71
2022/12/27 04:03:38;;;;;;;11.93;2.53;;;;;;;2.59;100.00;102098.78;5041212;28;20033;-71
2022/12/27 04:06:04;;;;;;;8.43;3.03;;;;;;;2.76;100.00;102092.03;5040937;28;20091;-70
2022/12/27 04:35:50;;;;;;;14.60;3.25;;;;;;;2.90;100.00;102100.69;5041009;28;20041;-71
2022/12/27 04:38:15;;;;;;;14.65;2.80;;;;;;;2.97;100.00;102101.22;5049849;28;20059;-71
2022/12/27 04:57:20;;;;;;;15.50;2.67;;;;;;;2.93;100.00;102094.59;5041352;28;20044;-71
2022/12/27 05:02:30;;;;;;;19.75;2.72;;;;;;;2.76;100.00;102108.22;5047902;28;20036;-70
2022/12/27 05:04:56;;;;;;;15.20;3.30;;;;;;;2.71;100.00;102116.13;5043963;28;20041;-71
2022/12/27 05:15:39;;;;;;;13.73;4.45;;;;;;;2.76;100.00;102133.00;5041843;28;20321;-70
2022/12/27 05:18:04;;;;;;;9.23;2.47;;;;;;;2.69;100.00;102129.91;5047229;28;20048;-71
2022/12/27 05:20:33;;;;;;;17.88;2.85;;;;;;;2.68;100.00;102128.25;5045412;28;20090;-70
2022/12/27 05:25:44;;;;;;;8.63;3.05;;;;;;;2.55;100.00;102143.34;5062203;28;20462;-71
2022/12/27 05:28:11;;;;;;;7.15;2.58;;;;;;;2.49;100.00;102159.00;5046941;28;20025;-70
2022/12/27 05:30:39;;;;;;;16.70;3.72;;;;;;;2.57;100.00;102150.97;5040832;28;20032;-71
2022/12/27 05:33:05;;;;;;;12.38;2.60;;;;;;;2.53;100.00;102157.97;5045515;28;21593;-71
2022/12/27 05:35:32;;;;;;;16.23;3.05;;;;;;;2.67;100.00;102157.31;5044228;28;20033;-71
2022/12/27 05:37:57;;;;;;;13.23;2.50;;;;;;;2.64;100.00;102153.19;5048303;28;20036;-70
2022/12/27 05:40:24;;;;;;;8.13;3.08;;;;;;;2.49;100.00;102171.81;5046605;28;20040;-71
2022/12/27 05:42:49;;;;;;;13.45;3.03;;;;;;;2.55;100.00;102165.59;5046090;28;20025;-71
2022/12/27 05:45:15;;;;;;;15.60;3.30;;;;;;;2.51;100.00;102167.44;5043377;28;20498;-71
2022/12/27 05:47:41;;;;;;;7.97;1.98;;;;;;;2.53;100.00;102173.34;5046216;28;20372;-70
2022/12/27 05:50:07;;;;;;;17.23;3.28;;;;;;;2.56;100.00;102177.47;5044661;28;20045;-71
2022/12/27 05:52:33;;;;;;;9.48;2.50;;;;;;;2.48;100.00;102188.06;5046097;28;20110;-70
2022/12/27 05:54:58;;;;;;;12.88;3.17;;;;;;;2.38;100.00;102182.53;5048266;28;20041;-71
2022/12/27 05:57:24;;;;;;;11.57;2.20;;;;;;;2.33;100.00;102189.59;5031596;28;20078;-71
2022/12/27 05:59:49;;;;;;;8.48;2.22;;;;;;;2.44;100.00;102187.38;5046251;28;20037;-70
2022/12/27 06:02:15;;;;;;;7.95;2.20;;;;;;;2.56;100.00;102183.41;5042792;28;20037;-71
2022/12/27 06:04:40;;;;;;;10.50;3.03;;;;;;;2.47;100.00;102182.13;5042992;28;20068;-71
2022/12/27 06:07:08;;;;;;;6.03;2.10;;;;;;;2.43;100.00;102188.28;5043269;28;20037;-70
2022/12/27 06:09:33;;;;;;;12.27;2.55;;;;;;;2.51;100.00;102193.06;5060809;28;20214;-71
2022/12/27 06:11:59;;;;;;;9.30;2.55;;;;;;;2.45;100.00;102193.31;5043129;28;20038;-70
2022/12/27 06:14:24;;;;;;;9.05;3.58;;;;;;;2.53;100.00;102201.50;5043185;28;20044;-70
2022/12/27 06:16:50;;;;;;;9.93;2.60;;;;;;;2.43;100.00;102200.22;5041873;28;20470;-70
2022/12/27 06:19:15;;;;;;;9.57;2.47;;;;;;;2.42;100.00;102201.97;5045593;28;20075;-71
2022/12/27 06:21:41;;;;;;;10.85;2.83;;;;;;;2.33;100.00;102197.25;5044930;28;20032;-71
2022/12/27 06:24:06;;;;;;;11.68;2.50;;;;;;;2.38;100.00;102194.50;5043097;28;20048;-71
2022/12/27 06:26:32;;;;;;;10.95;2.47;;;;;;;2.39;100.00;102186.72;5046356;28;20505;-71
2022/12/27 06:28:57;;;;;;;13.85;2.85;;;;;;;2.56;100.00;102205.63;5048368;28;20648;-70
2022/12/27 06:31:24;;;;;;;17.15;3.92;;;;;;;2.43;100.00;102203.66;5048404;28;20041;-70
2022/12/27 06:33:51;;;;;;;13.52;3.78;;;;;;;2.42;100.00;102206.28;5040844;28;20032;-70
2022/12/27 06:36:22;;;;;;;13.88;2.53;;;;;;;2.40;100.00;102203.78;5042185;28;20026;-70
2022/12/27 06:38:48;;;;;;;9.50;2.00;;;;;;;2.36;100.00;102207.38;5027272;28;20442;-71
2022/12/27 06:41:16;;;;;;;9.95;2.70;;;;;;;2.46;100.00;102213.72;5028163;28;20075;-70
2022/12/27 06:43:42;;;;;;;10.77;2.72;;;;;;;2.42;100.00;102216.50;5043290;28;20131;-70
2022/12/27 06:46:14;;;;;;;19.05;2.90;;;;;;;2.39;100.00;102222.59;5044894;28;20041;-71
2022/12/27 06:48:39;;;;;;;7.13;2.72;;;;;;;2.36;100.00;102217.63;5039698;28;20130;-70
2022/12/27 06:51:07;;;;;;;11.30;2.55;;;;;;;2.39;100.00;102219.19;5043378;28;20052;-71
2022/12/27 06:53:35;;;;;;;18.52;4.38;;;;;;;2.41;100.00;102212.28;5042916;28;20376;-71
2022/12/27 06:56:08;;;;;;;20.73;4.50;;;;;;;2.53;100.00;102204.06;5041298;28;20025;-71
2022/12/27 06:58:33;;;;;;;;;;;;;;;2.58;100.00;102209.81;5044576;28;20036;-71
2022/12/27 07:01:09;;;;;;;18.60;3.22;;;;;;;2.62;100.00;102202.78;5040021;28;19913;-71
2022/12/27 07:03:36;;;;;;;12.50;3.08;;;;;;;2.52;100.00;102207.50;5041345;28;20051;-71
2022/12/27 07:06:06;;;;;;;14.32;2.50;;;;;;;2.52;100.00;102213.47;5045824;28;20490;-70
2022/12/27 07:08:33;;;;;;;13.55;3.05;;;;;;;2.48;100.00;102219.63;5039286;28;20131;-71
2022/12/27 07:11:03;;;;;;;17.65;3.30;;;;;;;2.55;100.00;102222.75;5043955;28;20029;-70
2022/12/27 07:13:32;;;;;;;10.55;2.35;;;;;;;2.35;100.00;102226.19;5046198;28;20036;-70
2022/12/27 07:15:57;;;;;;;8.98;2.72;;;;;;;2.33;100.00;102226.25;5036258;28;20045;-70
2022/12/27 07:18:22;;;;;;;13.10;2.22;;;;;;;2.33;100.00;102235.66;5037089;28;20502;-70
2022/12/27 07:20:48;;;;;;;13.70;3.83;;;;;;;2.38;100.00;102246.53;5041433;28;20479;-70
2022/12/27 07:23:14;;;;;;;9.70;2.60;;;;;;;2.32;100.00;102236.56;5036203;28;20040;-70
2022/12/27 07:25:39;;;;;;;13.73;2.67;;;;;;;2.25;100.00;102248.81;5043467;28;20095;-70
2022/12/27 07:28:06;;;;;;;25.77;3.13;;;;;;;2.20;100.00;102252.44;5043336;28;20055;-69
2022/12/27 07:30:31;;;;;;;7.75;2.58;;;;;;;2.23;100.00;102260.00;5038352;28;20049;-71
2022/12/27 07:32:56;;;;;;;9.95;2.63;;;;;;;2.32;100.00;102262.19;5043136;28;20040;-70
2022/12/27 07:35:22;;;;;;;13.90;3.30;;;;;;;2.34;100.00;102253.53;5041678;28;20037;-70
2022/12/27 07:37:47;;;;;;;13.52;3.45;;;;;;;2.33;100.00;102261.25;5061964;28;20403;-70
2022/12/27 07:40:13;;;;;;;13.55;2.53;;;;;;;2.18;100.00;102255.06;5057417;28;20053;-70
2022/12/27 07:42:38;;;;;;;18.45;2.70;;;;;;;2.29;100.00;102268.25;5026997;28;20028;-70
2022/12/27 07:45:04;;;;;;;12.68;3.42;;;;;;;2.22;100.00;102266.84;5043062;28;20036;-70
2022/12/27 07:47:30;;;;;;;12.10;3.67;;;;;;;2.19;100.00;102263.59;5056086;28;20061;-70
2022/12/27 07:49:55;;;;;;;14.15;2.38;;;;;;;2.18;100.00;102267.06;5024745;28;20041;-71
2022/12/27 07:52:21;;;;;;;12.07;2.60;;;;;;;2.18;100.00;102260.19;5048647;28;20376;-70
2022/12/27 07:54:46;;;;;;;13.23;2.50;;;;;;;2.11;100.00;102263.91;5060113;28;20033;-70
2022/12/27 07:57:12;;;;;;;13.98;3.00;;;;;;;2.23;100.00;102270.25;5044775;28;20021;-70
2022/12/27 07:59:37;;;;;;;19.42;2.42;;;;;;;2.18;100.00;102275.56;5045593;28;20041;-70
2022/12/27 08:02:03;;;;;;;6.72;3.47;;;;;;;2.16;100.00;102276.53;5047769;28;20040;-70
2022/12/27 08:04:29;;;;;;;13.90;2.42;;;;;;;2.27;100.00;102280.28;5045938;28;20060;-70
2022/12/27 08:07:16;;;;;;;7.88;2.63;;;;;;;2.27;100.00;102282.84;5047868;28;20040;-70
2022/12/27 08:09:44;;;;;;;14.05;3.65;;;;;;;2.26;100.00;102283.75;5039028;28;20033;-70
2022/12/27 08:12:14;;;;;;;7.38;2.22;;;;;;;2.30;100.00;102281.91;5048250;28;20043;-69
2022/12/27 08:14:40;;;;;;;9.95;2.67;;;;;;;2.39;100.00;102278.09;5059526;28;20037;-70
2022/12/27 08:17:19;;;;;;;24.23;3.28;;;;;;;2.28;100.00;102281.94;5049696;28;20302;-71
2022/12/27 08:19:45;;;;;;;7.15;3.08;;;;;;;2.41;100.00;102271.16;5060664;28;20124;-71
2022/12/27 08:22:12;;;;;;;13.70;2.72;;;;;;;2.50;100.00;102284.41;5048526;28;20032;-70
2022/12/27 08:24:39;;;;;;;9.35;2.28;;;;;;;2.45;100.00;102273.53;5047530;28;20033;-71
2022/12/27 08:27:05;;;;;;;10.93;2.90;;;;;;;2.68;100.00;102279.38;5049198;28;20037;-70
2022/12/27 08:29:31;;;;;;;15.95;2.90;;;;;;;2.68;100.00;102284.50;5033732;28;20521;-71
2022/12/27 08:31:57;;;;;;;15.43;2.88;;;;;;;2.79;100.00;102274.59;5046399;28;20037;-70
2022/12/27 08:34:22;;;;;;;5.60;2.40;;;;;;;2.69;100.00;102276.75;5052332;28;20041;-70
2022/12/27 08:36:51;;;;;;;13.35;2.17;;;;;;;2.77;100.00;102283.25;5040911;28;20403;-71
2022/12/27 08:39:17;;;;;;;10.30;2.33;;;;;;;2.71;100.00;102277.50;5045978;28;20406;-70
2022/12/27 08:41:43;;;;;;;15.98;3.75;;;;;;;2.80;100.00;102281.38;5047582;28;20037;-70
2022/12/27 08:44:09;;;;;;;8.00;2.08;;;;;;;2.81;100.00;102280.50;5043963;28;20084;-71
2022/12/27 08:46:35;;;;;;;12.25;3.40;;;;;;;2.88;100.00;102289.56;5037646;28;20035;-71
2022/12/27 08:49:01;;;;;;;7.00;2.97;;;;;;;2.99;100.00;102285.66;5046784;28;20033;-71
2022/12/27 08:51:26;;;;;;;19.70;2.67;;;;;;;2.97;100.00;102290.84;5046963;28;20106;-71
2022/12/27 08:53:52;;;;;;;7.47;2.38;;;;;;;2.85;100.00;102288.88;5030925;23;20053;-74
2022/12/27 08:56:18;;;;;;;20.25;4.50;;;;;;;2.90;100.00;102284.34;5005246;28;20061;-73
2022/12/27 08:58:43;;;;;;;13.20;3.25;;;;;;;3.04;100.00;102286.28;5006594;28;20506;-74
2022/12/27 09:01:09;;;;;;;15.13;3.30;;;;;;;3.13;100.00;102285.88;5003935;28;20038;-73
2022/12/27 09:03:35;;;;;;;17.63;3.78;;;;;;;3.17;100.00;102281.44;5007415;28;20091;-74
2022/12/27 09:06:14;;;;;;;14.05;3.67;;;;;;;3.14;100.00;102289.25;5009368;28;20409;-74
2022/12/27 09:08:40;;;;;;;17.50;2.75;;;;;;;3.20;100.00;102288.97;5007187;28;20771;-74
2022/12/27 09:11:12;;;;;;;13.27;3.60;;;;;;;3.27;100.00;102292.91;5005261;28;20475;-74
2022/12/27 09:13:38;;;;;;;21.60;3.17;;;;;;;3.29;100.00;102294.50;4988651;28;20476;-74
2022/12/27 09:16:10;;;;;;;10.05;2.22;;;;;;;3.28;100.00;102292.84;5009170;28;20093;-73
2022/12/27 09:18:39;;;;;;;12.13;2.58;;;;;;;3.31;100.00;102299.56;4999082;28;20029;-73
2022/12/27 09:21:07;;;;;;;13.48;3.55;;;;;;;3.40;100.00;102296.56;5003812;28;20411;-73
2022/12/27 09:23:33;;;;;;;12.23;2.50;;;;;;;3.34;100.00;102298.59;5014982;28;20034;-74
2022/12/27 09:26:10;;;;;;;6.88;2.22;;;;;;;3.51;100.00;102296.06;5009321;28;20032;-74
2022/12/27 09:28:36;;;;;;;10.88;2.33;;;;;;;3.57;100.00;102298.31;5008571;28;20077;-74
2022/12/27 09:31:02;;;;;;;16.75;2.70;;;;;;;3.51;100.00;102296.88;5007164;28;20496;-74
2022/12/27 09:33:28;;;;;;;11.90;2.58;;;;;;;3.65;100.00;102303.91;5010124;28;20030;-73
2022/12/27 09:36:11;;;;;;;12.48;2.60;;;;;;;3.57;100.00;102310.31;5020380;28;20435;-73
2022/12/27 09:38:38;;;;;;;13.70;3.08;;;;;;;3.59;100.00;102309.34;5003337;28;20127;-74
2022/12/27 09:41:12;;;;;;;12.15;2.65;;;;;;;3.66;100.00;102295.31;5010217;28;20037;-73
2022/12/27 09:43:54;;;;;;;12.30;3.80;;;;;;;3.64;100.00;102297.13;5003215;28;20041;-74
2022/12/27 09:46:26;;;;;;;10.68;2.85;;;;;;;3.78;100.00;102291.31;5002030;28;20405;-73
2022/12/27 09:48:54;;;;;;;11.23;2.83;;;;;;;3.78;100.00;102300.75;5001071;28;20457;-74
2022/12/27 09:51:26;;;;;;;8.88;3.05;;;;;;;3.84;100.00;102297.88;5006155;28;20061;-74
2022/12/27 09:54:00;;;;;;;12.10;3.53;;;;;;;3.80;100.00;102293.81;5005544;28;20053;-74
2022/12/27 09:56:32;;;;;;;21.08;3.75;;;;;;;3.97;100.00;102298.91;5002710;28;20049;-74
2022/12/27 09:59:04;;;;;;;13.57;2.65;;;;;;;4.01;100.00;102290.19;5015635;28;20396;-74
2022/12/27 10:01:34;;;;;;;19.77;4.78;;;;;;;4.00;100.00;102292.81;5005370;28;20121;-73
2022/12/27 10:04:00;;;;;;;13.05;3.38;;;;;;;3.94;100.00;102299.09;5002079;28;20451;-73
2022/12/27 10:06:44;;;;;;;26.38;4.13;;;;;;;4.16;100.00;102293.69;5006500;28;20567;-73
2022/12/27 10:09:35;;;;;;;8.07;2.80;;;;;;;4.13;100.00;102288.72;5003321;28;20125;-73
2022/12/27 10:12:13;;;;;;;16.88;3.50;;;;;;;4.30;100.00;102290.44;5020871;28;20038;-74
2022/12/27 10:15:12;;;;;;;17.60;3.88;;;;;;;4.32;100.00;102296.31;4993119;28;20043;-74
2022/12/27 10:18:04;;;;;;;11.95;2.65;;;;;;;4.26;100.00;102287.19;5001460;28;20035;-73
2022/12/27 10:20:58;;;;;;;8.50;2.45;;;;;;;4.35;100.00;102297.91;4985376;28;20102;-73
2022/12/27 10:23:35;;;;;;;7.47;2.65;;;;;;;4.44;100.00;102287.97;5000055;28;20583;-73
2022/12/27 10:26:05;;;;;;;14.07;3.15;;;;;;;4.43;100.00;102281.19;5002643;28;20045;-73
2022/12/27 10:28:44;;;;;;;13.55;2.67;;;;;;;4.41;100.00;102277.88;5023143;28;20063;-73
2022/12/27 10:31:19;;;;;;;12.18;2.60;;;;;;;4.44;100.00;102280.25;5004467;28;20049;-73
2022/12/27 10:33:47;;;;;;;22.67;2.38;;;;;;;4.50;100.00;102273.97;5001680;28;20502;-74
2022/12/27 10:36:17;;;;;;;18.33;2.97;;;;;;;4.51;100.00;102275.66;5009523;28;20068;-75
2022/12/27 10:38:43;;;;;;;8.50;2.30;;;;;;;4.47;100.00;102277.53;5003712;28;20397;-73
2022/12/27 10:41:34;;;;;;;10.07;2.42;;;;;;;4.50;100.00;102281.69;5001682;28;20487;-74
2022/12/27 10:44:00;;;;;;;16.77;3.92;;;;;;;4.48;100.00;102276.66;5003226;28;20562;-73
2022/12/27 10:46:31;;;;;;;12.45;2.55;;;;;;;4.71;100.00;102274.59;5008457;28;20044;-73
2022/12/27 10:49:04;;;;;;;8.15;2.03;;;;;;;4.76;100.00;102279.50;4977569;28;20045;-73
2022/12/27 10:51:38;;;;;;;12.05;2.00;;;;;;;4.80;100.00;102276.69;4992607;28;20501;-74
2022/12/27 10:54:17;;;;;;;14.50;2.75;;;;;;;4.87;100.00;102280.56;4989282;28;20503;-74
2022/12/27 10:56:46;;;;;;;22.13;3.78;;;;;;;4.92;100.00;102282.09;5003828;28;20099;-73
2022/12/27 10:59:25;;;;;;;7.60;2.03;;;;;;;5.00;100.00;102283.31;4998573;28;20412;-74
2022/12/27 11:02:00;;;;;;;7.47;1.92;;;;;;;5.04;100.00;102281.41;5003907;28;20065;-73
2022/12/27 11:04:31;;;;;;;11.25;1.98;;;;;;;5.07;100.00;102279.50;4984382;28;20049;-73
2022/12/27 11:07:04;;;;;;;17.40;2.22;;;;;;;5.05;100.00;102283.06;4996000;28;20034;-74
2022/12/27 11:09:42;;;;;;;12.55;3.40;;;;;;;5.12;100.00;102275.84;4997061;28;20701;-73
2022/12/27 11:12:15;;;;;;;14.55;2.75;;;;;;;5.12;100.00;102281.81;5000111;28;20030;-73
2022/12/27 11:15:21;;;;;;;12.43;2.75;;;;;;;5.10;100.00;102282.81;5001049;28;20500;-73
2022/12/27 11:17:56;;;;;;;11.27;2.22;;;;;;;5.00;100.00;102279.91;5015374;28;20042;-73
2022/12/27 11:20:33;;;;;;;9.73;2.03;;;;;;;5.19;100.00;102277.16;5018787;28;20061;-73
2022/12/27 11:23:07;;;;;;;11.65;2.03;;;;;;;5.19;100.00;102269.44;5002732;28;20029;-74
2022/12/27 11:25:35;;;;;;;12.57;2.53;;;;;;;5.10;100.00;102278.50;5003419;28;20041;-73
2022/12/27 11:28:05;;;;;;;5.38;1.70;;;;;;;5.29;100.00;102264.63;5003241;28;20042;-74
2022/12/27 11:30:40;;;;;;;10.80;2.03;;;;;;;5.31;100.00;102273.06;4986729;28;20069;-74
2022/12/27 11:33:18;;;;;;;10.05;2.13;;;;;;;5.53;100.00;102278.66;5002133;28;20117;-73
2022/12/27 11:35:49;;;;;;;10.02;2.00;;;;;;;5.47;100.00;102276.44;5023781;28;20034;-74
2022/12/27 11:38:23;;;;;;;10.93;1.73;;;;;;;5.40;100.00;102267.41;5003391;28;20458;-74
2022/12/27 11:41:05;;;;;;;5.97;2.30;;;;;;;5.54;100.00;102275.19;4998914;28;20034;-73
2022/12/27 11:43:51;;;;;;;7.75;1.95;;;;;;;5.61;100.00;102260.22;5018752;28;20045;-74
2022/12/27 11:46:33;;;;;;;9.90;2.13;;;;;;;5.73;100.00;102277.53;5021355;28;20076;-73
2022/12/27 11:49:00;;;;;;;15.70;4.43;;;;;;;5.68;99.75;102273.56;5001026;28;20041;-74
2022/12/27 11:52:03;;;;;;;16.30;5.07;;;;;;;5.75;99.18;102272.31;5004607;28;20088;-73
2022/12/27 11:55:01;;;;;;;21.13;8.73;;;;;;;5.74;99.60;102275.78;5004846;28;20038;-73
2022/12/27 11:57:42;;;;;;;16.65;5.22;;;;;;;5.82;100.00;102284.75;5012219;28;20469;-73
2022/12/27 12:00:25;;;;;;;12.60;7.00;;;;;;;5.61;100.00;102276.50;5000654;28;20409;-74
2022/12/27 12:03:15;;;;;;;20.40;5.68;;;;;;;5.68;100.00;102273.56;5002371;28;20036;-73
2022/12/27 12:06:08;;;;;;;19.98;6.97;;;;;;;5.65;100.00;102272.84;5018875;28;20454;-73
2022/12/27 12:08:38;;;;;;;15.90;3.87;;;;;;;5.64;100.00;102272.91;5017459;28;20280;-73
2022/12/27 12:11:32;;;;;;;13.55;5.80;;;;;;;5.70;100.00;102270.00;5000981;28;20069;-73
2022/12/27 12:14:04;;;;;;;;;;;;;;;5.88;100.00;102265.53;4995773;28;20069;-73
2022/12/27 12:16:42;;;;;;;11.73;3.97;;;;;;;5.89;99.73;102258.63;4965351;28;19925;-73
2022/12/27 12:19:45;;;;;;;14.55;4.20;;;;;;;5.80;100.00;102271.13;4987126;28;20091;-73
2022/12/27 12:22:28;;;;;;;7.85;2.45;;;;;;;5.79;100.00;102264.31;4984952;28;20369;-73
2022/12/27 12:25:16;;;;;;;18.60;3.20;;;;;;;5.98;99.94;102260.69;5014475;28;20050;-73
2022/12/27 12:27:55;;;;;;;12.18;3.33;;;;;;;5.98;99.44;102258.13;5007006;28;20034;-73
2022/12/27 12:30:43;;;;;;;15.93;3.83;;;;;;;6.02;99.29;102244.16;4998823;28;20050;-73
2022/12/27 12:33:46;;;;;;;15.50;2.88;;;;;;;6.03;98.66;102241.47;5006633;28;20026;-73
2022/12/27 12:36:37;;;;;;;12.95;3.58;;;;;;;6.04;98.91;102237.16;5000668;28;20042;-73
2022/12/27 12:39:20;;;;;;;12.90;4.57;;;;;;;6.06;99.44;102230.16;4988525;28;20042;-73
2022/12/27 12:41:54;;;;;;;7.87;2.30;;;;;;;6.03;98.79;102231.19;5023124;28;20026;-73
2022/12/27 12:44:51;;;;;;;12.52;2.90;;;;;;;6.10;98.71;102228.22;5002576;28;20034;-73
2022/12/27 12:47:48;;;;;;;15.70;2.30;;;;;;;6.01;98.85;102225.31;5006689;28;20056;-73
2022/12/27 12:50:17;;;;;;;8.80;2.28;;;;;;;6.02;98.95;102218.38;5006103;28;20052;-73
2022/12/27 12:52:54;;;;;;;15.05;3.45;;;;;;;6.06;98.40;102217.28;5007500;28;20033;-73
2022/12/27 12:55:32;;;;;;;12.63;3.03;;;;;;;6.04;98.38;102225.09;5000909;28;20519;-73
2022/12/27 12:58:04;;;;;;;12.43;2.20;;;;;;;6.00;97.78;102207.34;5022400;28;20021;-73
2022/12/27 13:00:51;;;;;;;10.52;2.35;;;;;;;6.07;97.25;102206.06;5008536;28;20156;-73
2022/12/27 13:03:28;;;;;;;12.75;2.75;;;;;;;5.97;97.59;102212.69;5009319;28;20034;-73
2022/12/27 13:06:00;;;;;;;15.02;4.18;;;;;;;5.96;98.74;102209.28;5007628;28;20515;-73
2022/12/27 13:08:56;;;;;;;17.45;4.28;;;;;;;5.97;99.08;102198.06;5004774;28;20044;-74
2022/12/27 13:11:28;;;;;;;15.98;3.95;;;;;;;6.13;98.72;102192.00;5007754;28;20507;-73
2022/12/27 13:14:31;;;;;;;14.60;4.03;;;;;;;6.02;98.33;102187.50;5007230;28;20096;-73
2022/12/27 13:17:23;;;;;;;10.32;3.17;;;;;;;6.00;98.57;102177.28;5012641;28;20034;-73
2022/12/27 13:19:54;;;;;;;14.30;2.55;;;;;;;6.08;98.83;102170.84;5022339;28;20392;-73
2022/12/27 13:22:29;;;;;;;12.60;3.05;;;;;;;5.99;98.69;102170.50;5007324;28;20033;-73
2022/12/27 13:25:12;;;;;;;10.13;3.15;;;;;;;5.99;99.38;102178.22;5006495;28;20448;-73
2022/12/27 13:28:00;;;;;;;8.38;2.28;;;;;;;6.10;98.78;102172.38;4994453;28;20069;-73